sensor_id;sensor_type;location;lat;lon;timestamp;temperature;humidity
19389;DHT22;9830;41.876;23.474;2023-07-13T00:00:28;16.70;99.90
19389;DHT22;9830;41.876;23.474;2023-07-13T00:02:54;16.70;99.90
19389;DHT22;9830;41.876;23.474;2023-07-13T00:05:21;16.60;99.90
19389;DHT22;9830;41.876;23.474;2023-07-13T00:07:47;16.70;99.90
19389;DHT22;9830;41.876;23.474;2023-07-13T00:10:13;16.50;99.90
19389;DHT22;9830;41.876;23.474;2023-07-13T00:12:39;16.40;99.90
19389;DHT22;9830;41.876;23.474;2023-07-13T00:15:14;16.40;99.90
19389;DHT22;9830;41.876;23.474;2023-07-13T00:17:41;16.20;99.90
19389;DHT22;9830;41.876;23.474;2023-07-13T00:20:10;16.10;99.90
19389;DHT22;9830;41.876;23.474;2023-07-13T00:22:36;16.20;99.90
19389;DHT22;9830;41.876;23.474;2023-07-13T00:25:02;16.20;99.90
19389;DHT22;9830;41.876;23.474;2023-07-13T00:27:28;16.20;99.90
19389;DHT22;9830;41.876;23.474;2023-07-13T00:29:57;16.20;99.90
19389;DHT22;9830;41.876;23.474;2023-07-13T00:32:23;16.10;99.90
19389;DHT22;9830;41.876;23.474;2023-07-13T00:34:51;16.10;99.90
19389;DHT22;9830;41.876;23.474;2023-07-13T00:37:17;16.10;99.90
19389;DHT22;9830;41.876;23.474;2023-07-13T00:39:42;16.10;99.90
19389;DHT22;9830;41.876;23.474;2023-07-13T00:42:08;16.00;99.90
19389;DHT22;9830;41.876;23.474;2023-07-13T00:44:34;16.00;99.90
19389;DHT22;9830;41.876;23.474;2023-07-13T00:47:00;15.90;99.90
19389;DHT22;9830;41.876;23.474;2023-07-13T00:49:27;15.90;99.90
19389;DHT22;9830;41.876;23.474;2023-07-13T00:52:07;15.90;99.90
19389;DHT22;9830;41.876;23.474;2023-07-13T00:54:40;15.90;99.90
19389;DHT22;9830;41.876;23.474;2023-07-13T00:57:11;15.90;99.90
19389;DHT22;9830;41.876;23.474;2023-07-13T00:59:41;15.90;99.90
19389;DHT22;9830;41.876;23.474;2023-07-13T01:02:07;15.80;99.90
19389;DHT22;9830;41.876;23.474;2023-07-13T01:04:33;15.80;99.90
19389;DHT22;9830;41.876;23.474;2023-07-13T01:06:59;15.70;99.90
19389;DHT22;9830;41.876;23.474;2023-07-13T01:09:26;15.70;99.90
19389;DHT22;9830;41.876;23.474;2023-07-13T01:11:53;15.60;99.90
19389;DHT22;9830;41.876;23.474;2023-07-13T01:14:19;15.60;99.90
19389;DHT22;9830;41.876;23.474;2023-07-13T01:16:46;15.70;99.90
19389;DHT22;9830;41.876;23.474;2023-07-13T01:19:36;15.50;99.90
19389;DHT22;9830;41.876;23.474;2023-07-13T01:22:08;15.50;99.90
19389;DHT22;9830;41.876;23.474;2023-07-13T01:24:38;15.60;99.90
19389;DHT22;9830;41.876;23.474;2023-07-13T01:27:05;15.50;99.90
19389;DHT22;9830;41.876;23.474;2023-07-13T01:29:33;15.50;99.90
19389;DHT22;9830;41.876;23.474;2023-07-13T01:31:59;15.50;99.90
19389;DHT22;9830;41.876;23.474;2023-07-13T01:34:27;15.50;99.90
19389;DHT22;9830;41.876;23.474;2023-07-13T01:36:53;15.50;99.90
19389;DHT22;9830;41.876;23.474;2023-07-13T01:39:22;15.50;99.90
19389;DHT22;9830;41.876;23.474;2023-07-13T01:41:48;15.40;99.90
19389;DHT22;9830;41.876;23.474;2023-07-13T01:44:14;15.40;99.90
19389;DHT22;9830;41.876;23.474;2023-07-13T01:46:39;15.20;99.90
19389;DHT22;9830;41.876;23.474;2023-07-13T01:49:05;15.20;99.90
19389;DHT22;9830;41.876;23.474;2023-07-13T01:51:31;15.20;99.90
19389;DHT22;9830;41.876;23.474;2023-07-13T01:53:56;15.30;99.90
19389;DHT22;9830;41.876;23.474;2023-07-13T01:56:22;15.20;99.90
19389;DHT22;9830;41.876;23.474;2023-07-13T01:58:49;15.10;99.90
19389;DHT22;9830;41.876;23.474;2023-07-13T02:01:15;15.10;99.90
19389;DHT22;9830;41.876;23.474;2023-07-13T02:03:40;15.00;99.90
19389;DHT22;9830;41.876;23.474;2023-07-13T02:06:06;15.10;99.90
19389;DHT22;9830;41.876;23.474;2023-07-13T02:08:34;15.10;99.90
19389;DHT22;9830;41.876;23.474;2023-07-13T02:11:02;15.10;99.90
19389;DHT22;9830;41.876;23.474;2023-07-13T02:13:27;15.10;99.90
19389;DHT22;9830;41.876;23.474;2023-07-13T02:15:53;15.10;99.90
19389;DHT22;9830;41.876;23.474;2023-07-13T02:18:19;15.20;99.90
19389;DHT22;9830;41.876;23.474;2023-07-13T02:20:45;15.10;99.90
19389;DHT22;9830;41.876;23.474;2023-07-13T02:23:11;15.20;99.90
19389;DHT22;9830;41.876;23.474;2023-07-13T02:25:37;15.10;99.90
19389;DHT22;9830;41.876;23.474;2023-07-13T02:28:03;15.20;99.90
19389;DHT22;9830;41.876;23.474;2023-07-13T02:30:29;15.10;99.90
19389;DHT22;9830;41.876;23.474;2023-07-13T02:32:56;15.00;99.90
19389;DHT22;9830;41.876;23.474;2023-07-13T02:35:22;14.90;99.90
19389;DHT22;9830;41.876;23.474;2023-07-13T02:37:48;14.90;99.90
19389;DHT22;9830;41.876;23.474;2023-07-13T02:40:14;14.80;99.90
19389;DHT22;9830;41.876;23.474;2023-07-13T02:42:40;14.80;99.90
19389;DHT22;9830;41.876;23.474;2023-07-13T02:45:06;14.70;99.90
19389;DHT22;9830;41.876;23.474;2023-07-13T02:47:32;14.70;99.90
19389;DHT22;9830;41.876;23.474;2023-07-13T02:49:58;14.70;99.90
19389;DHT22;9830;41.876;23.474;2023-07-13T02:52:24;14.70;99.90
19389;DHT22;9830;41.876;23.474;2023-07-13T02:54:50;14.80;99.90
19389;DHT22;9830;41.876;23.474;2023-07-13T02:57:16;14.50;99.90
19389;DHT22;9830;41.876;23.474;2023-07-13T02:59:42;14.60;99.90
19389;DHT22;9830;41.876;23.474;2023-07-13T03:02:07;14.60;99.90
19389;DHT22;9830;41.876;23.474;2023-07-13T03:04:38;14.60;99.90
19389;DHT22;9830;41.876;23.474;2023-07-13T03:07:05;14.60;99.90
19389;DHT22;9830;41.876;23.474;2023-07-13T03:09:31;14.60;99.90
19389;DHT22;9830;41.876;23.474;2023-07-13T03:11:57;14.40;99.90
19389;DHT22;9830;41.876;23.474;2023-07-13T03:14:23;14.40;99.90
19389;DHT22;9830;41.876;23.474;2023-07-13T03:16:48;14.30;99.90
19389;DHT22;9830;41.876;23.474;2023-07-13T03:19:14;14.40;99.90
19389;DHT22;9830;41.876;23.474;2023-07-13T03:21:40;14.40;99.90
19389;DHT22;9830;41.876;23.474;2023-07-13T03:24:06;14.40;99.90
19389;DHT22;9830;41.876;23.474;2023-07-13T03:26:31;14.50;99.90
19389;DHT22;9830;41.876;23.474;2023-07-13T03:28:57;14.50;99.90
19389;DHT22;9830;41.876;23.474;2023-07-13T03:31:27;14.50;99.90
19389;DHT22;9830;41.876;23.474;2023-07-13T03:33:55;14.80;99.90
19389;DHT22;9830;41.876;23.474;2023-07-13T03:36:23;14.90;99.90
19389;DHT22;9830;41.876;23.474;2023-07-13T03:38:51;15.10;99.90
19389;DHT22;9830;41.876;23.474;2023-07-13T03:41:17;15.20;99.90
19389;DHT22;9830;41.876;23.474;2023-07-13T03:43:43;15.30;99.90
19389;DHT22;9830;41.876;23.474;2023-07-13T03:46:09;15.50;99.90
19389;DHT22;9830;41.876;23.474;2023-07-13T03:48:35;15.50;99.90
19389;DHT22;9830;41.876;23.474;2023-07-13T03:51:01;15.70;99.90
19389;DHT22;9830;41.876;23.474;2023-07-13T03:53:26;16.00;99.90
19389;DHT22;9830;41.876;23.474;2023-07-13T03:55:52;15.90;99.90
19389;DHT22;9830;41.876;23.474;2023-07-13T03:58:38;16.60;99.90
19389;DHT22;9830;41.876;23.474;2023-07-13T04:01:06;17.30;99.90
19389;DHT22;9830;41.876;23.474;2023-07-13T04:03:33;18.30;99.90
19389;DHT22;9830;41.876;23.474;2023-07-13T04:06:00;18.80;99.90
19389;DHT22;9830;41.876;23.474;2023-07-13T04:08:28;19.30;99.90
19389;DHT22;9830;41.876;23.474;2023-07-13T04:10:54;20.10;99.90
19389;DHT22;9830;41.876;23.474;2023-07-13T04:13:19;20.50;99.90
19389;DHT22;9830;41.876;23.474;2023-07-13T04:15:45;21.10;99.90
19389;DHT22;9830;41.876;23.474;2023-07-13T04:18:11;21.50;99.90
19389;DHT22;9830;41.876;23.474;2023-07-13T04:20:36;22.10;99.90
19389;DHT22;9830;41.876;23.474;2023-07-13T04:23:02;23.00;99.90
19389;DHT22;9830;41.876;23.474;2023-07-13T04:25:28;22.80;99.20
19389;DHT22;9830;41.876;23.474;2023-07-13T04:27:54;23.00;99.90
19389;DHT22;9830;41.876;23.474;2023-07-13T04:30:20;23.30;98.90
19389;DHT22;9830;41.876;23.474;2023-07-13T04:32:46;23.80;95.50
19389;DHT22;9830;41.876;23.474;2023-07-13T04:35:12;25.10;92.10
19389;DHT22;9830;41.876;23.474;2023-07-13T04:37:39;26.50;82.20
19389;DHT22;9830;41.876;23.474;2023-07-13T04:40:05;27.30;75.30
19389;DHT22;9830;41.876;23.474;2023-07-13T04:42:31;27.60;70.40
19389;DHT22;9830;41.876;23.474;2023-07-13T04:44:58;27.90;68.40
19389;DHT22;9830;41.876;23.474;2023-07-13T04:47:23;27.10;69.80
19389;DHT22;9830;41.876;23.474;2023-07-13T04:49:49;28.00;68.20
19389;DHT22;9830;41.876;23.474;2023-07-13T04:52:14;28.70;61.70
19389;DHT22;9830;41.876;23.474;2023-07-13T04:54:40;29.00;63.20
19389;DHT22;9830;41.876;23.474;2023-07-13T04:57:06;29.50;59.70
19389;DHT22;9830;41.876;23.474;2023-07-13T04:59:33;28.60;63.90
19389;DHT22;9830;41.876;23.474;2023-07-13T05:01:58;29.10;59.00
19389;DHT22;9830;41.876;23.474;2023-07-13T05:04:24;28.20;65.70
19389;DHT22;9830;41.876;23.474;2023-07-13T05:06:50;28.80;60.40
19389;DHT22;9830;41.876;23.474;2023-07-13T05:09:16;28.50;64.90
19389;DHT22;9830;41.876;23.474;2023-07-13T05:11:42;28.20;67.30
19389;DHT22;9830;41.876;23.474;2023-07-13T05:14:08;29.00;62.80
19389;DHT22;9830;41.876;23.474;2023-07-13T05:16:35;28.90;59.90
19389;DHT22;9830;41.876;23.474;2023-07-13T05:19:01;29.50;59.40
19389;DHT22;9830;41.876;23.474;2023-07-13T05:21:27;30.10;56.00
19389;DHT22;9830;41.876;23.474;2023-07-13T05:23:53;29.90;58.10
19389;DHT22;9830;41.876;23.474;2023-07-13T05:26:18;30.10;56.50
19389;DHT22;9830;41.876;23.474;2023-07-13T05:28:46;31.70;53.00
19389;DHT22;9830;41.876;23.474;2023-07-13T05:31:12;33.00;48.40
19389;DHT22;9830;41.876;23.474;2023-07-13T05:33:38;33.00;48.40
19389;DHT22;9830;41.876;23.474;2023-07-13T05:36:04;32.70;49.40
19389;DHT22;9830;41.876;23.474;2023-07-13T05:38:30;32.80;47.50
19389;DHT22;9830;41.876;23.474;2023-07-13T05:40:56;32.80;46.90
19389;DHT22;9830;41.876;23.474;2023-07-13T05:43:22;32.20;46.30
19389;DHT22;9830;41.876;23.474;2023-07-13T05:45:48;32.40;47.00
19389;DHT22;9830;41.876;23.474;2023-07-13T05:48:15;33.00;45.80
19389;DHT22;9830;41.876;23.474;2023-07-13T05:50:41;33.80;45.10
19389;DHT22;9830;41.876;23.474;2023-07-13T05:53:07;34.60;43.30
19389;DHT22;9830;41.876;23.474;2023-07-13T05:55:33;33.00;44.60
19389;DHT22;9830;41.876;23.474;2023-07-13T05:57:59;33.60;45.50
19389;DHT22;9830;41.876;23.474;2023-07-13T06:00:26;34.90;44.00
19389;DHT22;9830;41.876;23.474;2023-07-13T06:02:52;33.80;44.80
19389;DHT22;9830;41.876;23.474;2023-07-13T06:05:17;33.90;45.00
19389;DHT22;9830;41.876;23.474;2023-07-13T06:07:43;33.40;45.90
19389;DHT22;9830;41.876;23.474;2023-07-13T06:10:09;34.30;45.50
19389;DHT22;9830;41.876;23.474;2023-07-13T06:12:35;33.90;44.60
19389;DHT22;9830;41.876;23.474;2023-07-13T06:15:01;36.20;42.30
19389;DHT22;9830;41.876;23.474;2023-07-13T06:17:27;37.40;40.40
19389;DHT22;9830;41.876;23.474;2023-07-13T06:19:52;38.10;39.20
19389;DHT22;9830;41.876;23.474;2023-07-13T06:22:18;37.30;39.40
19389;DHT22;9830;41.876;23.474;2023-07-13T06:24:44;37.20;39.70
19389;DHT22;9830;41.876;23.474;2023-07-13T06:27:09;37.10;40.60
19389;DHT22;9830;41.876;23.474;2023-07-13T06:29:35;37.30;39.10
19389;DHT22;9830;41.876;23.474;2023-07-13T06:32:01;38.10;37.70
19389;DHT22;9830;41.876;23.474;2023-07-13T06:34:27;36.70;39.00
19389;DHT22;9830;41.876;23.474;2023-07-13T06:36:52;37.40;38.40
19389;DHT22;9830;41.876;23.474;2023-07-13T06:39:18;38.30;37.10
19389;DHT22;9830;41.876;23.474;2023-07-13T06:41:44;37.80;37.60
19389;DHT22;9830;41.876;23.474;2023-07-13T06:44:09;38.30;36.50
19389;DHT22;9830;41.876;23.474;2023-07-13T06:46:35;38.70;36.20
19389;DHT22;9830;41.876;23.474;2023-07-13T06:49:01;39.00;36.30
19389;DHT22;9830;41.876;23.474;2023-07-13T06:51:26;38.40;36.60
19389;DHT22;9830;41.876;23.474;2023-07-13T06:53:52;38.20;34.70
19389;DHT22;9830;41.876;23.474;2023-07-13T06:56:18;38.40;34.70
19389;DHT22;9830;41.876;23.474;2023-07-13T06:58:43;39.10;33.80
19389;DHT22;9830;41.876;23.474;2023-07-13T07:01:09;38.70;35.00
19389;DHT22;9830;41.876;23.474;2023-07-13T07:03:35;38.50;35.40
19389;DHT22;9830;41.876;23.474;2023-07-13T07:06:21;37.60;36.80
19389;DHT22;9830;41.876;23.474;2023-07-13T07:08:49;38.10;35.50
19389;DHT22;9830;41.876;23.474;2023-07-13T07:11:25;39.00;34.40
19389;DHT22;9830;41.876;23.474;2023-07-13T07:13:52;38.50;35.00
19389;DHT22;9830;41.876;23.474;2023-07-13T07:16:19;39.50;33.30
19389;DHT22;9830;41.876;23.474;2023-07-13T07:18:46;39.80;33.00
19389;DHT22;9830;41.876;23.474;2023-07-13T07:21:12;39.60;33.10
19389;DHT22;9830;41.876;23.474;2023-07-13T07:23:38;39.10;32.70
19389;DHT22;9830;41.876;23.474;2023-07-13T07:26:04;38.30;34.00
19389;DHT22;9830;41.876;23.474;2023-07-13T07:28:30;38.30;35.00
19389;DHT22;9830;41.876;23.474;2023-07-13T07:30:57;38.60;34.40
19389;DHT22;9830;41.876;23.474;2023-07-13T07:33:24;39.50;31.50
19389;DHT22;9830;41.876;23.474;2023-07-13T07:35:50;40.00;33.20
19389;DHT22;9830;41.876;23.474;2023-07-13T07:38:16;42.20;30.50
19389;DHT22;9830;41.876;23.474;2023-07-13T07:40:43;43.00;29.40
19389;DHT22;9830;41.876;23.474;2023-07-13T07:43:10;41.90;29.90
19389;DHT22;9830;41.876;23.474;2023-07-13T07:45:37;40.60;29.90
19389;DHT22;9830;41.876;23.474;2023-07-13T07:48:04;42.30;29.40
19389;DHT22;9830;41.876;23.474;2023-07-13T07:50:31;41.70;29.20
19389;DHT22;9830;41.876;23.474;2023-07-13T07:52:57;40.60;31.50
19389;DHT22;9830;41.876;23.474;2023-07-13T07:55:24;40.50;30.80
19389;DHT22;9830;41.876;23.474;2023-07-13T07:57:52;41.30;30.50
19389;DHT22;9830;41.876;23.474;2023-07-13T08:00:18;43.00;28.80
19389;DHT22;9830;41.876;23.474;2023-07-13T08:02:45;43.00;29.60
19389;DHT22;9830;41.876;23.474;2023-07-13T08:05:11;41.60;29.70
19389;DHT22;9830;41.876;23.474;2023-07-13T08:07:38;41.40;30.40
19389;DHT22;9830;41.876;23.474;2023-07-13T08:10:05;42.20;30.00
19389;DHT22;9830;41.876;23.474;2023-07-13T08:12:37;42.90;29.80
19389;DHT22;9830;41.876;23.474;2023-07-13T08:15:03;42.70;29.70
19389;DHT22;9830;41.876;23.474;2023-07-13T08:17:29;43.40;29.70
19389;DHT22;9830;41.876;23.474;2023-07-13T08:19:55;42.30;30.40
19389;DHT22;9830;41.876;23.474;2023-07-13T08:22:21;42.40;31.00
19389;DHT22;9830;41.876;23.474;2023-07-13T08:24:46;41.40;31.20
19389;DHT22;9830;41.876;23.474;2023-07-13T08:27:20;41.00;31.80
19389;DHT22;9830;41.876;23.474;2023-07-13T08:29:47;40.80;32.30
19389;DHT22;9830;41.876;23.474;2023-07-13T08:32:13;41.00;32.10
19389;DHT22;9830;41.876;23.474;2023-07-13T08:34:39;41.40;31.80
19389;DHT22;9830;41.876;23.474;2023-07-13T08:37:06;41.40;31.20
19389;DHT22;9830;41.876;23.474;2023-07-13T08:39:32;40.80;32.40
19389;DHT22;9830;41.876;23.474;2023-07-13T08:42:14;40.60;31.40
19389;DHT22;9830;41.876;23.474;2023-07-13T08:45:06;42.10;30.80
19389;DHT22;9830;41.876;23.474;2023-07-13T08:47:35;43.00;30.30
19389;DHT22;9830;41.876;23.474;2023-07-13T08:50:03;42.70;29.70
19389;DHT22;9830;41.876;23.474;2023-07-13T08:52:36;43.50;29.30
19389;DHT22;9830;41.876;23.474;2023-07-13T08:55:13;43.80;29.30
19389;DHT22;9830;41.876;23.474;2023-07-13T08:57:42;43.40;29.30
19389;DHT22;9830;41.876;23.474;2023-07-13T09:00:10;43.10;30.00
19389;DHT22;9830;41.876;23.474;2023-07-13T09:02:58;43.50;29.30
19389;DHT22;9830;41.876;23.474;2023-07-13T09:05:29;43.30;30.00
19389;DHT22;9830;41.876;23.474;2023-07-13T09:11:06;45.30;28.40
19389;DHT22;9830;41.876;23.474;2023-07-13T09:14:02;45.40;29.20
19389;DHT22;9830;41.876;23.474;2023-07-13T09:16:30;44.80;29.10
19389;DHT22;9830;41.876;23.474;2023-07-13T09:19:04;44.20;30.00
19389;DHT22;9830;41.876;23.474;2023-07-13T09:21:37;44.40;29.60
19389;DHT22;9830;41.876;23.474;2023-07-13T09:24:34;44.00;29.90
19389;DHT22;9830;41.876;23.474;2023-07-13T09:27:02;43.40;30.30
19389;DHT22;9830;41.876;23.474;2023-07-13T09:29:33;43.70;31.70
19389;DHT22;9830;41.876;23.474;2023-07-13T09:32:03;43.60;31.60
19389;DHT22;9830;41.876;23.474;2023-07-13T09:34:32;43.70;31.00
19389;DHT22;9830;41.876;23.474;2023-07-13T09:36:58;44.00;30.80
19389;DHT22;9830;41.876;23.474;2023-07-13T09:39:30;43.80;31.20
19389;DHT22;9830;41.876;23.474;2023-07-13T09:44:50;44.60;29.30
19389;DHT22;9830;41.876;23.474;2023-07-13T09:47:18;44.00;29.10
19389;DHT22;9830;41.876;23.474;2023-07-13T09:49:45;43.40;31.00
19389;DHT22;9830;41.876;23.474;2023-07-13T09:52:12;43.70;31.00
19389;DHT22;9830;41.876;23.474;2023-07-13T09:54:39;43.00;32.00
19389;DHT22;9830;41.876;23.474;2023-07-13T09:57:19;42.30;32.80
19389;DHT22;9830;41.876;23.474;2023-07-13T09:59:49;41.40;33.40
19389;DHT22;9830;41.876;23.474;2023-07-13T10:05:03;39.50;36.60
19389;DHT22;9830;41.876;23.474;2023-07-13T10:07:30;38.70;37.50
19389;DHT22;9830;41.876;23.474;2023-07-13T10:09:59;38.00;39.60
19389;DHT22;9830;41.876;23.474;2023-07-13T10:12:30;38.00;41.60
19389;DHT22;9830;41.876;23.474;2023-07-13T10:15:01;38.10;38.10
19389;DHT22;9830;41.876;23.474;2023-07-13T10:17:31;38.70;37.30
19389;DHT22;9830;41.876;23.474;2023-07-13T10:20:04;38.60;32.70
19389;DHT22;9830;41.876;23.474;2023-07-13T10:22:37;38.80;33.60
19389;DHT22;9830;41.876;23.474;2023-07-13T10:25:25;39.50;34.00
19389;DHT22;9830;41.876;23.474;2023-07-13T10:27:54;39.90;28.40
19389;DHT22;9830;41.876;23.474;2023-07-13T10:30:28;39.80;29.20
19389;DHT22;9830;41.876;23.474;2023-07-13T10:32:58;39.90;29.00
19389;DHT22;9830;41.876;23.474;2023-07-13T10:35:26;39.50;28.50
19389;DHT22;9830;41.876;23.474;2023-07-13T10:40:38;39.00;28.50
19389;DHT22;9830;41.876;23.474;2023-07-13T10:43:20;39.20;29.50
19389;DHT22;9830;41.876;23.474;2023-07-13T10:45:48;38.90;28.80
19389;DHT22;9830;41.876;23.474;2023-07-13T10:48:17;39.10;29.90
19389;DHT22;9830;41.876;23.474;2023-07-13T10:50:46;39.30;28.80
19389;DHT22;9830;41.876;23.474;2023-07-13T10:53:20;39.20;29.00
19389;DHT22;9830;41.876;23.474;2023-07-13T10:58:41;39.10;27.90
19389;DHT22;9830;41.876;23.474;2023-07-13T11:01:17;38.80;27.80
19389;DHT22;9830;41.876;23.474;2023-07-13T11:08:38;39.20;28.50
19389;DHT22;9830;41.876;23.474;2023-07-13T11:21:29;38.10;28.80
19389;DHT22;9830;41.876;23.474;2023-07-13T11:24:16;37.90;28.60
19389;DHT22;9830;41.876;23.474;2023-07-13T11:31:51;37.90;29.70
19389;DHT22;9830;41.876;23.474;2023-07-13T11:34:21;37.70;29.90
19389;DHT22;9830;41.876;23.474;2023-07-13T11:36:49;37.80;30.00
19389;DHT22;9830;41.876;23.474;2023-07-13T11:41:53;37.60;29.90
19389;DHT22;9830;41.876;23.474;2023-07-13T11:44:22;37.70;30.60
19389;DHT22;9830;41.876;23.474;2023-07-13T11:46:54;37.70;30.50
19389;DHT22;9830;41.876;23.474;2023-07-13T11:49:23;37.70;30.20
19389;DHT22;9830;41.876;23.474;2023-07-13T11:51:49;37.70;30.10
19389;DHT22;9830;41.876;23.474;2023-07-13T11:54:33;37.50;29.80
19389;DHT22;9830;41.876;23.474;2023-07-13T11:57:16;37.80;30.30
19389;DHT22;9830;41.876;23.474;2023-07-13T11:59:45;37.70;31.70
19389;DHT22;9830;41.876;23.474;2023-07-13T12:02:43;37.60;30.40
19389;DHT22;9830;41.876;23.474;2023-07-13T12:05:11;37.70;30.20
19389;DHT22;9830;41.876;23.474;2023-07-13T12:07:38;37.60;29.40
19389;DHT22;9830;41.876;23.474;2023-07-13T12:12:51;37.50;30.70
19389;DHT22;9830;41.876;23.474;2023-07-13T12:15:18;37.30;30.70
19389;DHT22;9830;41.876;23.474;2023-07-13T12:17:45;37.30;30.80
19389;DHT22;9830;41.876;23.474;2023-07-13T12:20:25;37.40;31.80
19389;DHT22;9830;41.876;23.474;2023-07-13T12:22:52;37.30;31.60
19389;DHT22;9830;41.876;23.474;2023-07-13T12:25:19;37.60;32.60
19389;DHT22;9830;41.876;23.474;2023-07-13T12:27:50;37.70;32.40
19389;DHT22;9830;41.876;23.474;2023-07-13T12:30:33;37.40;31.60
19389;DHT22;9830;41.876;23.474;2023-07-13T12:33:11;37.30;31.20
19389;DHT22;9830;41.876;23.474;2023-07-13T12:35:51;37.40;32.70
19389;DHT22;9830;41.876;23.474;2023-07-13T12:38:19;37.30;33.30
19389;DHT22;9830;41.876;23.474;2023-07-13T12:40:50;37.30;34.40
19389;DHT22;9830;41.876;23.474;2023-07-13T12:43:17;37.40;33.90
19389;DHT22;9830;41.876;23.474;2023-07-13T12:48:22;37.30;33.50
19389;DHT22;9830;41.876;23.474;2023-07-13T12:50:49;37.10;33.10
19389;DHT22;9830;41.876;23.474;2023-07-13T12:53:38;37.00;31.80
19389;DHT22;9830;41.876;23.474;2023-07-13T12:56:05;37.20;33.00
19389;DHT22;9830;41.876;23.474;2023-07-13T12:58:41;37.10;31.60
19389;DHT22;9830;41.876;23.474;2023-07-13T13:01:10;36.90;31.70
19389;DHT22;9830;41.876;23.474;2023-07-13T13:03:46;37.10;31.10
19389;DHT22;9830;41.876;23.474;2023-07-13T13:08:41;37.30;31.00
19389;DHT22;9830;41.876;23.474;2023-07-13T13:11:08;37.30;30.20
19389;DHT22;9830;41.876;23.474;2023-07-13T13:13:34;37.20;30.40
19389;DHT22;9830;41.876;23.474;2023-07-13T13:16:23;36.90;30.00
19389;DHT22;9830;41.876;23.474;2023-07-13T13:18:51;36.80;30.40
19389;DHT22;9830;41.876;23.474;2023-07-13T13:21:17;36.80;29.80
19389;DHT22;9830;41.876;23.474;2023-07-13T13:23:44;36.80;29.90
19389;DHT22;9830;41.876;23.474;2023-07-13T13:26:12;36.80;30.30
19389;DHT22;9830;41.876;23.474;2023-07-13T13:28:38;36.70;30.10
19389;DHT22;9830;41.876;23.474;2023-07-13T13:31:04;36.60;30.90
19389;DHT22;9830;41.876;23.474;2023-07-13T13:33:30;36.60;32.00
19389;DHT22;9830;41.876;23.474;2023-07-13T13:35:56;36.50;32.10
19389;DHT22;9830;41.876;23.474;2023-07-13T13:38:26;36.40;32.30
19389;DHT22;9830;41.876;23.474;2023-07-13T13:40:52;36.40;32.60
19389;DHT22;9830;41.876;23.474;2023-07-13T13:43:24;36.30;32.00
19389;DHT22;9830;41.876;23.474;2023-07-13T13:45:58;36.40;31.90
19389;DHT22;9830;41.876;23.474;2023-07-13T13:48:32;36.20;31.20
19389;DHT22;9830;41.876;23.474;2023-07-13T13:50:59;36.30;32.10
19389;DHT22;9830;41.876;23.474;2023-07-13T13:53:25;36.20;32.00
19389;DHT22;9830;41.876;23.474;2023-07-13T13:55:51;36.40;32.30
19389;DHT22;9830;41.876;23.474;2023-07-13T13:58:19;36.30;32.40
19389;DHT22;9830;41.876;23.474;2023-07-13T14:00:45;36.30;32.40
19389;DHT22;9830;41.876;23.474;2023-07-13T14:03:19;36.20;33.70
19389;DHT22;9830;41.876;23.474;2023-07-13T14:05:45;36.40;34.50
19389;DHT22;9830;41.876;23.474;2023-07-13T14:08:19;36.10;33.40
19389;DHT22;9830;41.876;23.474;2023-07-13T14:10:46;36.10;33.00
19389;DHT22;9830;41.876;23.474;2023-07-13T14:13:28;35.90;33.90
19389;DHT22;9830;41.876;23.474;2023-07-13T14:15:54;35.80;32.80
19389;DHT22;9830;41.876;23.474;2023-07-13T14:18:21;35.80;34.40
19389;DHT22;9830;41.876;23.474;2023-07-13T14:20:48;35.90;35.40
19389;DHT22;9830;41.876;23.474;2023-07-13T14:23:15;35.90;34.70
19389;DHT22;9830;41.876;23.474;2023-07-13T14:25:42;36.10;34.70
19389;DHT22;9830;41.876;23.474;2023-07-13T14:28:23;35.80;35.40
19389;DHT22;9830;41.876;23.474;2023-07-13T14:30:50;35.70;35.80
19389;DHT22;9830;41.876;23.474;2023-07-13T14:33:16;35.70;35.60
19389;DHT22;9830;41.876;23.474;2023-07-13T14:35:42;35.70;35.50
19389;DHT22;9830;41.876;23.474;2023-07-13T14:38:17;35.80;35.60
19389;DHT22;9830;41.876;23.474;2023-07-13T14:40:44;35.80;36.60
19389;DHT22;9830;41.876;23.474;2023-07-13T14:43:13;35.70;36.20
19389;DHT22;9830;41.876;23.474;2023-07-13T14:45:44;35.60;36.20
19389;DHT22;9830;41.876;23.474;2023-07-13T14:48:14;35.60;36.00
19389;DHT22;9830;41.876;23.474;2023-07-13T14:50:41;35.60;35.80
19389;DHT22;9830;41.876;23.474;2023-07-13T14:53:10;35.30;36.40
19389;DHT22;9830;41.876;23.474;2023-07-13T14:55:36;35.30;36.20
19389;DHT22;9830;41.876;23.474;2023-07-13T14:58:02;35.30;37.20
19389;DHT22;9830;41.876;23.474;2023-07-13T15:00:28;35.20;35.80
19389;DHT22;9830;41.876;23.474;2023-07-13T15:02:56;35.30;37.30
19389;DHT22;9830;41.876;23.474;2023-07-13T15:05:25;35.20;36.40
19389;DHT22;9830;41.876;23.474;2023-07-13T15:07:53;35.10;36.00
19389;DHT22;9830;41.876;23.474;2023-07-13T15:10:19;35.00;37.10
19389;DHT22;9830;41.876;23.474;2023-07-13T15:12:45;34.90;37.40
19389;DHT22;9830;41.876;23.474;2023-07-13T15:15:11;34.90;36.60
19389;DHT22;9830;41.876;23.474;2023-07-13T15:17:38;34.90;36.90
19389;DHT22;9830;41.876;23.474;2023-07-13T15:22:48;34.80;37.10
19389;DHT22;9830;41.876;23.474;2023-07-13T15:25:17;34.70;37.80
19389;DHT22;9830;41.876;23.474;2023-07-13T15:27:43;34.60;37.50
19389;DHT22;9830;41.876;23.474;2023-07-13T15:30:09;34.50;38.80
19389;DHT22;9830;41.876;23.474;2023-07-13T15:32:35;34.50;39.10
19389;DHT22;9830;41.876;23.474;2023-07-13T15:35:01;34.30;37.90
19389;DHT22;9830;41.876;23.474;2023-07-13T15:37:26;34.30;38.80
19389;DHT22;9830;41.876;23.474;2023-07-13T15:39:52;34.30;40.00
19389;DHT22;9830;41.876;23.474;2023-07-13T15:42:20;34.30;39.30
19389;DHT22;9830;41.876;23.474;2023-07-13T15:44:46;34.20;38.60
19389;DHT22;9830;41.876;23.474;2023-07-13T15:47:13;34.10;39.40
19389;DHT22;9830;41.876;23.474;2023-07-13T15:49:40;34.10;40.10
19389;DHT22;9830;41.876;23.474;2023-07-13T15:52:17;33.90;40.60
19389;DHT22;9830;41.876;23.474;2023-07-13T15:54:44;33.90;40.70
19389;DHT22;9830;41.876;23.474;2023-07-13T15:57:11;33.80;40.40
19389;DHT22;9830;41.876;23.474;2023-07-13T15:59:38;33.80;41.10
19389;DHT22;9830;41.876;23.474;2023-07-13T16:02:18;33.70;40.70
19389;DHT22;9830;41.876;23.474;2023-07-13T16:04:44;33.60;41.00
19389;DHT22;9830;41.876;23.474;2023-07-13T16:07:11;33.60;41.70
19389;DHT22;9830;41.876;23.474;2023-07-13T16:09:38;33.40;41.10
19389;DHT22;9830;41.876;23.474;2023-07-13T16:12:10;33.40;40.90
19389;DHT22;9830;41.876;23.474;2023-07-13T16:14:37;33.20;40.40
19389;DHT22;9830;41.876;23.474;2023-07-13T16:17:03;33.20;41.80
19389;DHT22;9830;41.876;23.474;2023-07-13T16:19:31;33.20;42.20
19389;DHT22;9830;41.876;23.474;2023-07-13T16:21:59;33.10;42.60
19389;DHT22;9830;41.876;23.474;2023-07-13T16:24:26;33.10;43.00